Pgc Ikaros — C6TN6 — position and weather

sailwx.info

Track history (hours):
 
Tides and Currents Weather Stations Pressure Air Temp Water Temp Dewpoint Dewpoint Depression Visibility Wind Speed Wind Dir Waves Ship Positions

Pgc Ikaros

Last reported at 2018-Jun-18 08:58 UTC. Time now 2018-Jun-19 00:52 UTC.
Position N 17°19' W 063°09'.

Length 228 m; draft 11.4 m.

Type: Tanker. MMSI: 311707000.

Date/timePositionNaut miles runAvg speedWind from/ knotsBaromVisibWave heightAir tempDewpointWater temp
2018-Jun-18 08:58N 17°19' W 063°09'12 8.6
2018-Jun-18 07:36N 17°28' W 063°02'2 4.4
2018-Jun-18 07:03N 17°30' W 063°00'0 0.2
2018-Jun-18 06:58N 17°30' W 063°00'0 0.0
2018-Jun-18 06:28N 17°30' W 063°00'0 0.0
2018-Jun-18 05:54N 17°30' W 063°00'0 0.0
2018-Jun-16 22:30N 17°30' W 063°00'0 0.0
2018-Jun-16 17:36N 17°30' W 063°00'0 0.1
2018-Jun-16 17:21N 17°30' W 063°00'1 1.1
2018-Jun-16 16:52N 17°30' W 063°01'1 1.1
2018-Jun-16 16:24N 17°30' W 063°01'1 0.7
2018-Jun-16 15:24N 17°30' W 063°02'0 0.0
2018-Jun-16 14:54N 17°30' W 063°02'0 0.0
2018-Jun-16 14:27N 17°30' W 063°02'0 0.0
2018-Jun-16 13:57N 17°30' W 063°02'0 0.0
2018-Jun-16 13:28N 17°30' W 063°02'0 0.0
2018-Jun-16 12:58N 17°30' W 063°02'0 0.0
2018-Jun-16 11:57N 17°30' W 063°02'0 0.0
2018-Jun-16 11:24N 17°30' W 063°02'0 0.0
2018-Jun-16 11:00N 17°30' W 063°02'0 0.0
2018-Jun-16 10:24N 17°30' W 063°02'0 0.0
2018-Jun-16 10:00N 17°30' W 063°02'0 0.0
2018-Jun-16 09:30N 17°30' W 063°02'0 0.0
2018-Jun-16 09:00N 17°30' W 063°02'0 0.0
2018-Jun-16 08:27N 17°30' W 063°02'0 0.0
2018-Jun-16 07:48N 17°30' W 063°02'0 0.0
2018-Jun-16 07:30N 17°30' W 063°02'0 0.0
2018-Jun-16 07:00N 17°30' W 063°02'0 0.1
2018-Jun-16 06:19N 17°30' W 063°02'0 0.1
2018-Jun-16 05:51N 17°30' W 063°02'0 0.1
2018-Jun-16 05:30N 17°30' W 063°02'0 0.0
2018-Jun-16 04:18N 17°30' W 063°02'0 0.1
2018-Jun-16 03:51N 17°30' W 063°02'0 0.0
2018-Jun-16 03:24N 17°30' W 063°02'0 0.0
2018-Jun-16 02:54N 17°30' W 063°02'0 0.0
2018-Jun-16 02:25N 17°30' W 063°02'0 0.0
2018-Jun-16 01:54N 17°30' W 063°02'0 0.0
2018-Jun-16 01:22N 17°30' W 063°02'0 0.0
2018-Jun-16 00:58N 17°30' W 063°02'0 0.0
2018-Jun-16 00:28N 17°30' W 063°02'0 0.0
2018-Jun-15 23:57N 17°30' W 063°02'0 0.0
2018-Jun-15 23:28N 17°30' W 063°02'0 0.0
2018-Jun-15 20:57N 17°30' W 063°02'0 0.0
2018-Jun-15 20:30N 17°30' W 063°02'0 0.0
2018-Jun-15 19:33N 17°30' W 063°02'0 0.1
2018-Jun-15 19:28N 17°30' W 063°02'0 0.0
2018-Jun-15 17:48N 17°30' W 063°02'0 0.0
2018-Jun-15 17:04N 17°30' W 063°02'0 0.2
2018-Jun-15 16:48N 17°30' W 063°02'0 0.0
2018-Jun-15 16:22N 17°30' W 063°02'0 0.1
2018-Jun-15 15:51N 17°30' W 063°02'0 0.2
2018-Jun-15 15:21N 17°30' W 063°02'0 0.0
2018-Jun-15 14:36N 17°30' W 063°02'0 0.0
2018-Jun-15 14:18N 17°30' W 063°02'0 0.3
2018-Jun-15 13:54N 17°30' W 063°02'0 0.0
2018-Jun-15 13:18N 17°30' W 063°02'0 0.1
2018-Jun-15 11:54N 17°30' W 063°02'0 0.0
2018-Jun-15 11:22N 17°30' W 063°02'0 0.0
2018-Jun-15 10:55N 17°30' W 063°02'0 0.1
2018-Jun-15 10:24N 17°30' W 063°02'0 0.0
2018-Jun-15 09:57N 17°30' W 063°02'0 0.0
2018-Jun-15 09:27N 17°30' W 063°02'0 0.0
2018-Jun-15 08:58N 17°30' W 063°02'0 0.0
2018-Jun-15 08:24N 17°30' W 063°02'0 0.0
2018-Jun-15 07:54N 17°30' W 063°02'0 0.0
2018-Jun-15 07:27N 17°30' W 063°02'0 0.0
2018-Jun-15 06:57N 17°30' W 063°02'0 0.1
2018-Jun-15 06:15N 17°30' W 063°02'0 0.0
2018-Jun-15 03:33N 17°30' W 063°02'0 0.1
2018-Jun-15 03:30N 17°30' W 063°02'0 0.0
2018-Jun-15 03:00N 17°30' W 063°02'0 0.0
2018-Jun-15 02:30N 17°30' W 063°02'0 0.0
2018-Jun-15 01:52N 17°30' W 063°02'0 0.0
2018-Jun-15 00:37N 17°30' W 063°02'0 0.1
2018-Jun-15 00:27N 17°30' W 063°02'0 0.0
2018-Jun-14 22:44N 17°30' W 063°02'0 0.0
2018-Jun-14 22:28N 17°30' W 063°02'0 0.2
2018-Jun-14 21:47N 17°30' W 063°02'1 1.7
2018-Jun-14 21:20N 17°29' W 063°02'3 6.7
2018-Jun-14 20:57N 17°27' W 063°01'613.1
2018-Jun-14 20:29N 17°21' W 062°58'18313.9
2018-Jun-14 07:17N 14°40' W 061°27'413.9
2018-Jun-14 07:00N 14°37' W 061°25'714.4
2018-Jun-14 06:31N 14°31' W 061°21'714.2
2018-Jun-14 06:01N 14°25' W 061°17'713.5
2018-Jun-14 05:30N 14°19' W 061°14'612.7
2018-Jun-14 05:00N 14°13' W 061°11'713.3
2018-Jun-14 04:30N 14°08' W 061°07'714.1
2018-Jun-14 04:00N 14°02' W 061°03'  
2018-Jun-09 14:00N 10°14' W 076°14'912.5
2018-Jun-09 13:18N 10°07' W 076°20'412.9
2018-Jun-09 13:00N 10°04' W 076°20'812.7
2018-Jun-09 12:24N 09°56' W 076°20'612.7
2018-Jun-09 11:54N 09°50' W 076°20'512.5
2018-Jun-09 11:30N 09°45' W 076°20'612.0
2018-Jun-09 11:00N 09°42' W 076°15'712.9
2018-Jun-09 10:28N 09°40' W 076°08'813.0
2018-Jun-09 09:51N 09°38' W 075°60'513.2
2018-Jun-09 09:26N 09°36' W 075°55'511.8
2018-Jun-09 09:00N 09°34' W 075°50'1 2.4
2018-Jun-09 08:24N 09°33' W 075°49'0 0.0
2018-Jun-09 07:57N 09°33' W 075°49'0 0.0
2018-Jun-09 05:39N 09°33' W 075°49'0 0.1
2018-Jun-09 05:30N 09°33' W 075°49'0 0.0
2018-Jun-09 04:50N 09°33' W 075°49'0 0.4
2018-Jun-09 04:23N 09°33' W 075°49'2 3.9
2018-Jun-09 03:52N 09°32' W 075°47'3 8.6
2018-Jun-09 03:30N 09°31' W 075°44'2 3.7
2018-Jun-09 03:00N 09°29' W 075°43'1 0.2
2018-Jun-09 00:15N 09°30' W 075°44'0 0.0
2018-Jun-09 00:00N 09°30' W 075°44'0 0.1
2018-Jun-08 23:30N 09°30' W 075°44'0 0.0
2018-Jun-08 21:15N 09°30' W 075°44'0 0.0
2018-Jun-08 19:30N 09°30' W 075°44'  
Track history (hours):
 
Tides and Currents Weather Stations Pressure Air Temp Water Temp Dewpoint Dewpoint Depression Visibility Wind Speed Wind Dir Waves Ship Positions

Pgc Ikaros

Last reported at 2018-Jun-18 08:58 UTC. Time now 2018-Jun-19 00:52 UTC.
Position N 17°19' W 063°09'.

Length 228 m; draft 11.4 m.

Type: Tanker. MMSI: 311707000.

Date/timePositionNaut miles runAvg speedWind from/ knotsBaromVisibWave heightAir tempDewpointWater temp
2018-Jun-18 08:58N 17°19' W 063°09'12 8.6
2018-Jun-18 07:36N 17°28' W 063°02'2 4.4
2018-Jun-18 07:03N 17°30' W 063°00'0 0.2
2018-Jun-18 06:58N 17°30' W 063°00'0 0.0
2018-Jun-18 06:28N 17°30' W 063°00'0 0.0
2018-Jun-18 05:54N 17°30' W 063°00'0 0.0
2018-Jun-16 22:30N 17°30' W 063°00'0 0.0
2018-Jun-16 17:36N 17°30' W 063°00'0 0.1
2018-Jun-16 17:21N 17°30' W 063°00'1 1.1
2018-Jun-16 16:52N 17°30' W 063°01'1 1.1
2018-Jun-16 16:24N 17°30' W 063°01'1 0.7
2018-Jun-16 15:24N 17°30' W 063°02'0 0.0
2018-Jun-16 14:54N 17°30' W 063°02'0 0.0
2018-Jun-16 14:27N 17°30' W 063°02'0 0.0
2018-Jun-16 13:57N 17°30' W 063°02'0 0.0
2018-Jun-16 13:28N 17°30' W 063°02'0 0.0
2018-Jun-16 12:58N 17°30' W 063°02'0 0.0
2018-Jun-16 11:57N 17°30' W 063°02'0 0.0
2018-Jun-16 11:24N 17°30' W 063°02'0 0.0
2018-Jun-16 11:00N 17°30' W 063°02'0 0.0
2018-Jun-16 10:24N 17°30' W 063°02'0 0.0
2018-Jun-16 10:00N 17°30' W 063°02'0 0.0
2018-Jun-16 09:30N 17°30' W 063°02'0 0.0
2018-Jun-16 09:00N 17°30' W 063°02'0 0.0
2018-Jun-16 08:27N 17°30' W 063°02'0 0.0
2018-Jun-16 07:48N 17°30' W 063°02'0 0.0
2018-Jun-16 07:30N 17°30' W 063°02'0 0.0
2018-Jun-16 07:00N 17°30' W 063°02'0 0.1
2018-Jun-16 06:19N 17°30' W 063°02'0 0.1
2018-Jun-16 05:51N 17°30' W 063°02'0 0.1
2018-Jun-16 05:30N 17°30' W 063°02'0 0.0
2018-Jun-16 04:18N 17°30' W 063°02'0 0.1
2018-Jun-16 03:51N 17°30' W 063°02'0 0.0
2018-Jun-16 03:24N 17°30' W 063°02'0 0.0
2018-Jun-16 02:54N 17°30' W 063°02'0 0.0
2018-Jun-16 02:25N 17°30' W 063°02'0 0.0
2018-Jun-16 01:54N 17°30' W 063°02'0 0.0
2018-Jun-16 01:22N 17°30' W 063°02'0 0.0
2018-Jun-16 00:58N 17°30' W 063°02'0 0.0
2018-Jun-16 00:28N 17°30' W 063°02'0 0.0
2018-Jun-15 23:57N 17°30' W 063°02'0 0.0
2018-Jun-15 23:28N 17°30' W 063°02'0 0.0
2018-Jun-15 20:57N 17°30' W 063°02'0 0.0
2018-Jun-15 20:30N 17°30' W 063°02'0 0.0
2018-Jun-15 19:33N 17°30' W 063°02'0 0.1
2018-Jun-15 19:28N 17°30' W 063°02'0 0.0
2018-Jun-15 17:48N 17°30' W 063°02'0 0.0
2018-Jun-15 17:04N 17°30' W 063°02'0 0.2
2018-Jun-15 16:48N 17°30' W 063°02'0 0.0
2018-Jun-15 16:22N 17°30' W 063°02'0 0.1
2018-Jun-15 15:51N 17°30' W 063°02'0 0.2
2018-Jun-15 15:21N 17°30' W 063°02'0 0.0
2018-Jun-15 14:36N 17°30' W 063°02'0 0.0
2018-Jun-15 14:18N 17°30' W 063°02'0 0.3
2018-Jun-15 13:54N 17°30' W 063°02'0 0.0
2018-Jun-15 13:18N 17°30' W 063°02'0 0.1
2018-Jun-15 11:54N 17°30' W 063°02'0 0.0
2018-Jun-15 11:22N 17°30' W 063°02'0 0.0
2018-Jun-15 10:55N 17°30' W 063°02'0 0.1
2018-Jun-15 10:24N 17°30' W 063°02'0 0.0
2018-Jun-15 09:57N 17°30' W 063°02'0 0.0
2018-Jun-15 09:27N 17°30' W 063°02'0 0.0
2018-Jun-15 08:58N 17°30' W 063°02'0 0.0
2018-Jun-15 08:24N 17°30' W 063°02'0 0.0
2018-Jun-15 07:54N 17°30' W 063°02'0 0.0
2018-Jun-15 07:27N 17°30' W 063°02'0 0.0
2018-Jun-15 06:57N 17°30' W 063°02'0 0.1
2018-Jun-15 06:15N 17°30' W 063°02'0 0.0
2018-Jun-15 03:33N 17°30' W 063°02'0 0.1
2018-Jun-15 03:30N 17°30' W 063°02'0 0.0
2018-Jun-15 03:00N 17°30' W 063°02'0 0.0
2018-Jun-15 02:30N 17°30' W 063°02'0 0.0
2018-Jun-15 01:52N 17°30' W 063°02'0 0.0
2018-Jun-15 00:37N 17°30' W 063°02'0 0.1
2018-Jun-15 00:27N 17°30' W 063°02'0 0.0
2018-Jun-14 22:44N 17°30' W 063°02'0 0.0
2018-Jun-14 22:28N 17°30' W 063°02'0 0.2
2018-Jun-14 21:47N 17°30' W 063°02'1 1.7
2018-Jun-14 21:20N 17°29' W 063°02'3 6.7
2018-Jun-14 20:57N 17°27' W 063°01'613.1
2018-Jun-14 20:29N 17°21' W 062°58'18313.9
2018-Jun-14 07:17N 14°40' W 061°27'413.9
2018-Jun-14 07:00N 14°37' W 061°25'714.4
2018-Jun-14 06:31N 14°31' W 061°21'714.2
2018-Jun-14 06:01N 14°25' W 061°17'713.5
2018-Jun-14 05:30N 14°19' W 061°14'612.7
2018-Jun-14 05:00N 14°13' W 061°11'713.3
2018-Jun-14 04:30N 14°08' W 061°07'714.1
2018-Jun-14 04:00N 14°02' W 061°03'  
2018-Jun-09 14:00N 10°14' W 076°14'912.5
2018-Jun-09 13:18N 10°07' W 076°20'412.9
2018-Jun-09 13:00N 10°04' W 076°20'812.7
2018-Jun-09 12:24N 09°56' W 076°20'612.7
2018-Jun-09 11:54N 09°50' W 076°20'512.5
2018-Jun-09 11:30N 09°45' W 076°20'612.0
2018-Jun-09 11:00N 09°42' W 076°15'712.9
2018-Jun-09 10:28N 09°40' W 076°08'813.0
2018-Jun-09 09:51N 09°38' W 075°60'513.2
2018-Jun-09 09:26N 09°36' W 075°55'511.8
2018-Jun-09 09:00N 09°34' W 075°50'1 2.4
2018-Jun-09 08:24N 09°33' W 075°49'0 0.0
2018-Jun-09 07:57N 09°33' W 075°49'0 0.0
2018-Jun-09 05:39N 09°33' W 075°49'0 0.1
2018-Jun-09 05:30N 09°33' W 075°49'0 0.0
2018-Jun-09 04:50N 09°33' W 075°49'0 0.4
2018-Jun-09 04:23N 09°33' W 075°49'2 3.9
2018-Jun-09 03:52N 09°32' W 075°47'3 8.6
2018-Jun-09 03:30N 09°31' W 075°44'2 3.7
2018-Jun-09 03:00N 09°29' W 075°43'1 0.2
2018-Jun-09 00:15N 09°30' W 075°44'0 0.0
2018-Jun-09 00:00N 09°30' W 075°44'0 0.1
2018-Jun-08 23:30N 09°30' W 075°44'0 0.0
2018-Jun-08 21:15N 09°30' W 075°44'0 0.0
2018-Jun-08 19:30N 09°30' W 075°44'  

Dump ship's entire track history